Time;durP1;ratioP1;P1;durP2;ratioP2;P2;SDS_P1;SDS_P2;PMS_P1;PMS_P2;Temp;Humidity;BMP_temperature;BMP_pressure;BME280_temperature;BME280_humidity;BME280_pressure;Samples;Min_cycle;Max_cycle;Signal;HPM_P1;HPM_P2
2023/06/20 00:02:15;;;;;;;13.57;10.27;;;;;;;-141.97;66.31;47567.13;5015279;28;20281;-80
2023/06/20 00:04:41;;;;;;;15.50;10.87;;;;;;;-141.97;66.65;47570.97;5015221;28;20167;-80
2023/06/20 00:07:06;;;;;;;17.37;11.03;;;;;;;-141.97;68.75;47542.16;5013976;28;20600;-79
2023/06/20 00:09:32;;;;;;;15.53;11.17;;;;;;;-141.97;70.19;47496.00;5012884;28;20245;-79
2023/06/20 00:11:57;;;;;;;16.80;11.00;;;;;;;-141.97;69.78;47530.59;5014023;28;20238;-80
2023/06/20 00:14:23;;;;;;;14.83;11.10;;;;;;;-141.97;71.19;47734.34;5014391;28;20250;-79
2023/06/20 00:16:48;;;;;;;15.63;11.10;;;;;;;-141.97;72.00;47507.53;5014040;28;20158;-79
2023/06/20 00:19:15;;;;;;;17.37;10.77;;;;;;;-141.97;73.38;47547.91;5013784;28;20249;-77
2023/06/20 00:21:40;;;;;;;15.60;11.03;;;;;;;-141.97;71.76;47526.75;5013592;28;20575;-79
2023/06/20 00:24:09;;;;;;;14.50;10.97;;;;;;;-141.97;71.11;47480.63;5013913;28;20166;-80
2023/06/20 00:26:38;;;;;;;14.83;10.33;;;;;;;-141.97;70.60;47551.75;5013550;28;20278;-81
2023/06/20 00:29:04;;;;;;;15.73;10.57;;;;;;;-141.97;69.84;47547.91;5014281;28;20250;-79
2023/06/20 00:31:29;;;;;;;13.20;10.33;;;;;;;-141.97;69.69;47559.44;5013857;28;20173;-79
2023/06/20 00:33:55;;;;;;;16.67;10.40;;;;;;;-141.97;69.80;47524.84;5013741;28;20171;-79
2023/06/20 00:36:26;;;;;;;14.77;10.23;;;;;;;-141.97;69.92;47713.22;5013590;28;20163;-80
2023/06/20 00:38:53;;;;;;;14.27;10.70;;;;;;;-141.97;70.18;47540.22;5013795;28;20179;-80
2023/06/20 00:41:21;;;;;;;15.03;10.47;;;;;;;-141.97;70.76;47509.47;5013115;28;20616;-81
2023/06/20 00:43:50;;;;;;;13.23;9.97;;;;;;;-141.97;70.38;47584.44;5016684;28;20210;-80
2023/06/20 00:46:19;;;;;;;15.17;9.83;;;;;;;-141.97;70.70;47521.00;5013821;28;20716;-79
2023/06/20 00:48:46;;;;;;;14.23;10.03;;;;;;;-141.97;70.62;47496.00;5013427;28;20568;-80
2023/06/20 00:51:13;;;;;;;14.03;10.40;;;;;;;-141.97;70.71;47472.94;5013052;28;20166;-78
2023/06/20 00:53:39;;;;;;;12.90;9.60;;;;;;;-141.97;70.03;47497.94;5013112;28;20163;-79
2023/06/20 00:56:05;;;;;;;15.73;10.53;;;;;;;-141.97;69.64;47526.75;5013073;28;20240;-81
2023/06/20 00:58:31;;;;;;;14.70;10.43;;;;;;;-141.97;69.37;47717.06;5013414;28;20166;-81
2023/06/20 01:00:56;;;;;;;15.70;10.47;;;;;;;-141.97;69.06;47561.38;5013035;28;20167;-80
2023/06/20 01:03:22;;;;;;;16.97;10.77;;;;;;;-141.97;69.42;47557.53;5013137;28;20158;-80
2023/06/20 01:06:04;;;;;;;16.67;11.13;;;;;;;-141.97;69.66;47540.22;5011755;28;20171;-80
2023/06/20 01:08:50;;;;;;;14.60;10.80;;;;;;;-141.97;69.99;47534.44;5012380;28;20245;-80
2023/06/20 01:11:45;;;;;;;13.93;10.87;;;;;;;-141.97;69.91;47595.97;5012878;28;20189;-80
2023/06/20 01:14:47;;;;;;;14.47;10.97;;;;;;;-141.97;70.20;47557.53;5012811;28;20799;-79
2023/06/20 01:17:24;;;;;;;17.03;11.77;;;;;;;-141.97;71.60;47551.75;5013317;28;20194;-80
2023/06/20 01:20:04;;;;;;;15.83;11.10;;;;;;;-141.97;71.90;47549.84;5013117;28;20158;-81
2023/06/20 01:22:41;;;;;;;15.10;11.10;;;;;;;-141.97;72.24;47559.44;5012721;28;20167;-80
2023/06/20 01:25:23;;;;;;;15.57;10.77;;;;;;;-141.97;72.51;47561.38;5012533;28;20177;-81
2023/06/20 01:27:59;;;;;;;14.90;11.00;;;;;;;-141.97;72.27;47471.03;5012638;28;20191;-80
2023/06/20 01:30:38;;;;;;;14.30;10.77;;;;;;;-141.97;73.47;47580.59;5012436;28;20231;-80
2023/06/20 01:33:06;;;;;;;14.80;10.60;;;;;;;-141.97;74.37;47538.28;5011987;28;20198;-81
2023/06/20 01:35:34;;;;;;;15.63;10.50;;;;;;;-141.97;74.31;47588.28;5012739;28;20245;-81
2023/06/20 01:38:04;;;;;;;14.70;10.50;;;;;;;-141.97;73.98;47557.53;5012667;28;20240;-80
2023/06/20 01:40:30;;;;;;;13.70;10.07;;;;;;;-141.97;73.12;47519.06;5012472;28;20621;-80
2023/06/20 01:42:58;;;;;;;13.60;9.70;;;;;;;-141.97;72.35;47557.53;5012276;28;20163;-80
2023/06/20 01:45:27;;;;;;;13.67;10.07;;;;;;;-141.97;71.92;47542.16;5012313;28;20644;-79
2023/06/20 01:47:58;;;;;;;12.57;9.67;;;;;;;-141.97;72.38;47561.38;5011795;28;20190;-80
2023/06/20 01:50:27;;;;;;;13.90;9.70;;;;;;;-141.97;72.07;47707.44;5010945;28;20194;-80
2023/06/20 01:52:54;;;;;;;12.60;9.50;;;;;;;-141.97;72.43;47580.59;5012135;28;20174;-80
2023/06/20 01:55:21;;;;;;;14.73;10.10;;;;;;;-141.97;72.61;47534.44;5012215;28;20167;-81
2023/06/20 01:57:47;;;;;;;14.73;9.83;;;;;;;-141.97;71.85;47595.97;5012610;28;20166;-80
2023/06/20 02:00:14;;;;;;;13.97;9.50;;;;;;;-141.97;71.57;47557.53;5012349;28;20230;-80
2023/06/20 02:02:41;;;;;;;15.80;10.50;;;;;;;-141.97;71.02;47576.75;5012388;28;20642;-79
2023/06/20 02:05:10;;;;;;;16.10;11.63;;;;;;;-141.97;70.91;47607.50;5012716;28;20257;-80
2023/06/20 02:07:36;;;;;;;17.07;10.40;;;;;;;-141.97;70.77;47442.19;5011017;28;20817;-78
2023/06/20 02:10:03;;;;;;;14.57;10.70;;;;;;;-141.97;70.48;47599.81;5000234;28;20349;-81
2023/06/20 02:12:30;;;;;;;17.10;10.30;;;;;;;-141.97;70.17;47570.97;4992873;28;20171;-79
2023/06/20 02:14:57;;;;;;;15.17;10.30;;;;;;;-141.97;70.62;47592.13;4992380;28;20175;-79
2023/06/20 02:17:24;;;;;;;15.53;10.73;;;;;;;-141.97;70.85;47457.56;4990796;28;20209;-79
2023/06/20 02:19:50;;;;;;;15.80;10.10;;;;;;;-141.97;70.11;47582.50;4992049;28;20186;-79
2023/06/20 02:22:20;;;;;;;23.40;11.40;;;;;;;-141.97;70.17;47745.88;4992079;28;20592;-81
2023/06/20 02:24:49;;;;;;;17.83;10.80;;;;;;;-141.97;70.25;47572.91;4991876;28;20175;-80
2023/06/20 02:27:17;;;;;;;17.20;11.07;;;;;;;-141.97;71.18;47574.81;4992080;28;20231;-79
2023/06/20 02:29:45;;;;;;;14.10;10.73;;;;;;;-141.97;72.21;47584.44;4992649;28;20584;-80
2023/06/20 02:32:13;;;;;;;16.70;11.33;;;;;;;-141.97;73.84;47511.38;4991958;28;20170;-80
2023/06/20 02:34:43;;;;;;;16.27;11.50;;;;;;;-141.97;75.19;47569.06;4992227;28;20160;-80
2023/06/20 02:37:10;;;;;;;15.97;11.07;;;;;;;-141.97;75.19;47584.44;4992116;28;20164;-79
2023/06/20 02:39:35;;;;;;;16.70;11.67;;;;;;;-141.97;75.56;47565.22;4992065;28;20159;-80
2023/06/20 02:42:00;;;;;;;19.90;11.57;;;;;;;-141.97;75.60;47582.50;4992402;28;20617;-78
2023/06/20 02:44:26;;;;;;;17.40;11.17;;;;;;;-141.97;75.48;47565.22;4992358;28;20179;-80
2023/06/20 02:47:00;;;;;;;18.00;11.37;;;;;;;-141.97;75.71;47592.13;5005910;28;20205;-80
2023/06/20 02:49:47;;;;;;;18.13;11.60;;;;;;;-141.97;75.31;47582.50;5012345;28;20181;-79
2023/06/20 02:52:26;;;;;;;18.73;12.23;;;;;;;-141.97;74.45;47505.63;5012025;28;20167;-79
2023/06/20 02:55:14;;;;;;;18.00;12.57;;;;;;;-141.97;74.17;47542.16;5012241;28;20265;-81
2023/06/20 02:57:44;;;;;;;17.60;11.50;;;;;;;-141.97;73.86;47755.50;5011389;28;20242;-80
2023/06/20 03:00:11;;;;;;;17.97;12.17;;;;;;;-141.97;74.57;47703.59;5013232;28;20238;-79
2023/06/20 03:02:46;;;;;;;18.03;12.27;;;;;;;-141.97;74.55;47734.34;5017905;28;20166;-81
2023/06/20 03:05:14;;;;;;;17.63;12.07;;;;;;;-141.97;74.69;47613.25;5019261;28;20561;-79
2023/06/20 03:07:41;;;;;;;17.73;12.23;;;;;;;-141.97;75.19;47559.44;5014859;28;20217;-80
2023/06/20 03:10:08;;;;;;;17.40;12.47;;;;;;;-141.97;74.53;47530.59;5011640;28;20214;-79
2023/06/20 03:12:34;;;;;;;18.50;11.50;;;;;;;-141.97;74.55;47567.13;5011264;28;20613;-78
2023/06/20 03:14:59;;;;;;;17.60;12.70;;;;;;;-141.97;74.70;47588.28;5012350;28;20171;-79
2023/06/20 03:17:25;;;;;;;21.30;12.60;;;;;;;-141.97;74.83;47576.75;5012684;28;20602;-78
2023/06/20 03:19:51;;;;;;;20.50;13.07;;;;;;;-141.97;74.72;47570.97;5012256;28;20618;-80
2023/06/20 03:22:16;;;;;;;16.10;11.80;;;;;;;-141.97;74.92;47553.69;5012473;28;20266;-79
2023/06/20 03:24:42;;;;;;;18.30;12.93;;;;;;;-141.97;74.85;47559.44;5011668;28;20547;-78
2023/06/20 03:27:07;;;;;;;18.53;13.07;;;;;;;-141.97;74.80;47588.28;5011840;28;20222;-79
2023/06/20 03:29:33;;;;;;;18.33;12.30;;;;;;;-141.97;74.26;47607.50;5011779;28;20163;-79
2023/06/20 03:31:58;;;;;;;18.30;12.00;;;;;;;-141.97;73.59;47555.59;5015385;28;20167;-78
2023/06/20 03:34:24;;;;;;;17.77;12.53;;;;;;;-141.97;72.81;47653.63;5015662;28;20174;-78
2023/06/20 03:36:49;;;;;;;22.23;13.33;;;;;;;-141.97;72.20;47536.38;5014929;28;20171;-77
2023/06/20 03:39:14;;;;;;;18.57;13.33;;;;;;;-141.97;71.86;47509.47;5015395;28;20162;-80
2023/06/20 03:41:40;;;;;;;21.10;12.97;;;;;;;-141.97;71.13;47526.75;5015307;28;20213;-79
2023/06/20 03:44:05;;;;;;;21.87;12.77;;;;;;;-141.97;70.36;47567.13;5014064;28;20593;-78
2023/06/20 03:46:30;;;;;;;20.97;13.10;;;;;;;-141.97;70.17;47557.53;5015562;28;20201;-78
2023/06/20 03:48:56;;;;;;;19.43;12.33;;;;;;;-141.97;70.49;47572.91;5015126;28;20258;-78
2023/06/20 03:51:21;;;;;;;16.77;11.83;;;;;;;-141.97;71.23;47488.31;5015255;28;20166;-79
2023/06/20 03:53:47;;;;;;;23.00;12.53;;;;;;;-141.97;72.24;47584.44;5015374;28;20170;-79
2023/06/20 03:56:12;;;;;;;16.00;11.83;;;;;;;-141.97;72.61;47526.75;5014994;28;20163;-78
2023/06/20 03:58:38;;;;;;;19.20;12.07;;;;;;;-141.97;73.10;47597.88;5015315;28;20171;-77
2023/06/20 04:01:06;;;;;;;17.97;12.50;;;;;;;-141.97;72.40;47544.06;5015028;28;20247;-77
2023/06/20 04:03:31;;;;;;;20.70;11.73;;;;;;;-141.97;72.39;47561.38;5014526;28;20158;-79
2023/06/20 04:06:01;;;;;;;18.13;11.50;;;;;;;-141.97;72.03;47595.97;5014063;28;20710;-79
2023/06/20 04:08:29;;;;;;;21.23;12.67;;;;;;;-141.97;71.86;47576.75;5014954;28;20225;-78
2023/06/20 04:10:56;;;;;;;18.23;12.40;;;;;;;-141.97;71.73;47601.72;5014704;28;20175;-77
2023/06/20 04:13:21;;;;;;;18.67;11.93;;;;;;;-141.97;71.55;47576.75;5014801;28;20192;-78
2023/06/20 04:15:47;;;;;;;17.80;12.40;;;;;;;-141.97;72.03;47551.75;5015048;28;20241;-78
2023/06/20 04:18:12;;;;;;;17.00;11.47;;;;;;;-141.97;71.65;47713.22;5014087;28;20201;-78
2023/06/20 04:20:37;;;;;;;34.80;23.33;;;;;;;-141.97;70.99;47561.38;5014064;28;20301;-78
2023/06/20 04:23:03;;;;;;;51.00;35.50;;;;;;;-141.97;69.70;47542.16;5013493;28;20190;-78
2023/06/20 04:25:28;;;;;;;24.80;16.83;;;;;;;-141.97;69.23;47555.59;5013434;28;20244;-77
2023/06/20 04:27:55;;;;;;;21.70;13.67;;;;;;;-141.97;68.48;47563.28;5013692;28;20205;-77
2023/06/20 04:30:21;;;;;;;16.43;11.97;;;;;;;-141.97;67.86;47580.59;4991384;28;20238;-79
2023/06/20 04:32:47;;;;;;;20.03;12.50;;;;;;;-141.97;67.45;47561.38;5012130;28;20205;-78
2023/06/20 04:35:12;;;;;;;17.97;12.20;;;;;;;-141.97;67.77;47576.75;5012868;28;20612;-78
2023/06/20 04:37:38;;;;;;;17.13;12.80;;;;;;;-141.97;69.18;47561.38;5012803;28;20175;-78
2023/06/20 04:40:05;;;;;;;15.73;12.70;;;;;;;-141.97;69.54;47580.59;5012956;28;20297;-78
2023/06/20 04:42:31;;;;;;;19.00;13.20;;;;;;;-141.97;69.18;47565.22;5011634;28;20628;-78
2023/06/20 04:44:56;;;;;;;19.03;13.40;;;;;;;-141.97;68.23;47584.44;5011530;28;20199;-78
2023/06/20 04:47:22;;;;;;;17.37;12.83;;;;;;;-141.97;67.62;47553.69;5013032;28;20690;-79
2023/06/20 04:49:47;;;;;;;20.93;13.27;;;;;;;-141.97;67.54;47572.91;5011183;28;20175;-78
2023/06/20 04:52:13;;;;;;;19.30;12.47;;;;;;;-141.97;67.60;47542.16;5012761;28;20209;-78
2023/06/20 04:54:38;;;;;;;20.80;13.57;;;;;;;-141.97;68.09;47546.00;5012338;28;20179;-78
2023/06/20 04:57:03;;;;;;;19.37;12.90;;;;;;;-141.97;66.97;47534.44;5011676;28;20438;-78
2023/06/20 04:59:29;;;;;;;16.70;12.87;;;;;;;-141.97;66.06;47546.00;5011943;28;20174;-79
2023/06/20 05:01:55;;;;;;;20.13;12.87;;;;;;;-141.97;64.57;47634.41;5012539;28;20178;-80
2023/06/20 05:04:21;;;;;;;19.63;13.53;;;;;;;-141.97;63.88;47515.22;5012783;28;20539;-78
2023/06/20 05:06:46;;;;;;;19.90;13.27;;;;;;;-141.97;63.47;47567.13;5012199;28;20685;-78
2023/06/20 05:09:12;;;;;;;20.50;13.20;;;;;;;-141.97;62.69;47682.47;5012581;28;20679;-78
2023/06/20 05:11:38;;;;;;;18.10;13.47;;;;;;;-141.97;61.28;47553.69;5012837;28;20166;-78
2023/06/20 05:14:03;;;;;;;19.53;12.67;;;;;;;-141.97;60.32;47538.28;5012401;28;20179;-78
2023/06/20 05:16:28;;;;;;;19.63;12.90;;;;;;;-141.97;59.17;47472.94;5011790;28;20185;-77
2023/06/20 05:18:54;;;;;;;18.43;13.37;;;;;;;-141.97;58.79;47534.44;5012092;28;20182;-77
2023/06/20 05:21:19;;;;;;;21.87;13.37;;;;;;;-141.97;58.73;47503.69;5011809;28;20155;-78
2023/06/20 05:23:45;;;;;;;17.07;12.93;;;;;;;-141.97;58.51;47530.59;5012288;28;20175;-81
2023/06/20 05:26:11;;;;;;;18.20;13.13;;;;;;;-141.97;57.94;47463.34;5012348;28;20249;-81
2023/06/20 05:28:37;;;;;;;18.33;12.83;;;;;;;-141.97;57.42;47417.22;5012962;28;20323;-80
2023/06/20 05:31:03;;;;;;;18.63;13.17;;;;;;;-141.97;57.27;47549.84;4987567;28;20198;-80
2023/06/20 05:33:29;;;;;;;22.47;12.13;;;;;;;-141.97;57.48;47515.22;5012601;28;20178;-81
2023/06/20 05:35:55;;;;;;;17.03;11.10;;;;;;;-141.97;56.71;47542.16;5012759;28;20674;-80
2023/06/20 05:38:20;;;;;;;14.20;9.20;;;;;;;-141.97;52.84;47619.03;5012657;28;20319;-81
2023/06/20 05:40:45;;;;;;;13.33;9.17;;;;;;;-141.97;51.51;47519.06;5012735;28;20205;-80
2023/06/20 05:43:11;;;;;;;10.77;8.70;;;;;;;-141.97;50.78;47530.59;5012975;28;20159;-80
2023/06/20 05:45:36;;;;;;;13.10;9.23;;;;;;;-141.97;50.61;47509.47;5013837;28;20174;-82
2023/06/20 05:48:02;;;;;;;12.87;8.70;;;;;;;-141.97;50.55;47503.69;5011406;28;20281;-80
2023/06/20 05:50:27;;;;;;;11.73;9.00;;;;;;;-141.97;50.29;47482.56;5015784;28;20194;-80
2023/06/20 05:52:53;;;;;;;14.77;9.37;;;;;;;-141.97;49.56;47492.16;5012608;28;20294;-79
2023/06/20 05:55:19;;;;;;;13.00;9.23;;;;;;;-141.97;49.16;47499.84;5010815;28;20183;-80
2023/06/20 05:57:45;;;;;;;12.00;8.83;;;;;;;-141.97;49.07;47511.38;5012754;28;20250;-80
2023/06/20 06:00:13;;;;;;;10.53;8.27;;;;;;;-141.97;48.41;47511.38;5009023;28;20210;-80
2023/06/20 06:02:40;;;;;;;10.80;8.63;;;;;;;-141.97;48.08;47465.25;5013492;28;20249;-80
2023/06/20 06:05:06;;;;;;;11.77;8.90;;;;;;;-141.97;48.09;47478.72;5012777;28;20198;-80
2023/06/20 06:07:31;;;;;;;11.93;8.90;;;;;;;-141.97;47.69;47505.63;5011212;28;20198;-79
2023/06/20 06:09:56;;;;;;;12.83;8.80;;;;;;;-141.97;47.78;47465.25;5011310;28;20233;-79
2023/06/20 06:12:22;;;;;;;12.03;8.80;;;;;;;-141.97;47.80;47515.22;5010099;28;20162;-78
2023/06/20 06:14:47;;;;;;;10.77;8.60;;;;;;;-141.97;47.83;47530.59;5010127;28;20499;-79
2023/06/20 06:17:13;;;;;;;11.67;8.90;;;;;;;-141.97;47.25;47517.16;5011667;28;20171;-79
2023/06/20 06:19:39;;;;;;;16.20;9.03;;;;;;;-141.97;47.35;47480.63;5011783;28;20192;-79
2023/06/20 06:22:05;;;;;;;12.17;8.70;;;;;;;-141.97;47.15;47492.16;5011125;28;20700;-81
2023/06/20 06:24:30;;;;;;;12.57;9.20;;;;;;;-141.97;46.86;47482.56;5008872;28;20183;-78
2023/06/20 06:26:56;;;;;;;13.70;10.77;;;;;;;-141.97;45.63;47692.06;5012110;28;20190;-79
2023/06/20 06:29:21;;;;;;;12.10;8.87;;;;;;;-141.97;44.30;47515.22;5011879;28;20628;-79
2023/06/20 06:31:47;;;;;;;13.97;8.70;;;;;;;-141.97;44.33;47684.38;5011903;28;20174;-80
2023/06/20 06:34:17;;;;;;;11.77;8.90;;;;;;;-141.97;43.81;47376.84;5016924;28;20564;-79
2023/06/20 06:36:49;;;;;;;14.17;8.57;;;;;;;-141.97;43.91;47476.78;5010567;28;20251;-79
2023/06/20 06:39:17;;;;;;;12.17;8.93;;;;;;;-141.97;44.28;47469.09;5009976;28;20197;-78
2023/06/20 06:41:47;;;;;;;11.87;8.60;;;;;;;-141.97;44.27;47499.84;5011132;28;20159;-77
2023/06/20 06:44:13;;;;;;;10.77;8.37;;;;;;;-141.97;43.81;47403.75;5007039;28;20174;-79
2023/06/20 06:46:38;;;;;;;14.47;9.27;;;;;;;-141.97;43.65;47461.41;5010978;28;20620;-79
2023/06/20 06:49:04;;;;;;;10.83;8.70;;;;;;;-141.97;43.12;47457.56;5011709;28;20167;-79
2023/06/20 06:51:29;;;;;;;13.93;8.50;;;;;;;-141.97;42.72;47499.84;5011998;28;20606;-79
2023/06/20 06:53:55;;;;;;;12.90;8.60;;;;;;;-141.97;42.74;47688.22;5011609;28;20155;-79
2023/06/20 06:56:20;;;;;;;12.23;8.40;;;;;;;-141.97;42.41;47474.88;5011419;28;20166;-78
2023/06/20 06:58:45;;;;;;;12.87;9.00;;;;;;;-141.97;41.92;47499.84;5011066;28;20646;-80
2023/06/20 07:01:11;;;;;;;11.32;8.10;;;;;;;-141.97;42.00;47476.78;5011390;28;20162;-80
2023/06/20 07:03:37;;;;;;;11.80;8.35;;;;;;;-141.97;41.82;47720.91;5011428;28;20274;-80
2023/06/20 07:06:03;;;;;;;11.52;8.18;;;;;;;-141.97;41.91;47436.44;5012973;28;20183;-80
2023/06/20 07:08:28;;;;;;;11.65;8.82;;;;;;;-141.97;41.33;47465.25;5014884;28;20224;-78
2023/06/20 07:10:54;;;;;;;11.55;9.10;;;;;;;-141.97;41.07;47461.41;5014733;28;20175;-79
2023/06/20 07:13:19;;;;;;;14.63;9.20;;;;;;;-141.97;40.79;47376.84;5011506;28;20272;-80
2023/06/20 07:15:45;;;;;;;10.48;8.25;;;;;;;-141.97;40.64;47421.06;5011784;28;21020;-79
2023/06/20 07:18:10;;;;;;;12.55;9.30;;;;;;;-141.97;40.54;47394.16;5015477;28;20185;-80
2023/06/20 07:20:36;;;;;;;13.75;8.80;;;;;;;-141.97;40.29;47376.84;5011525;28;20185;-79
2023/06/20 07:23:01;;;;;;;10.00;8.30;;;;;;;-141.97;39.99;47726.66;5014520;28;20185;-80
2023/06/20 07:25:27;;;;;;;9.70;8.02;;;;;;;-141.97;39.99;47288.44;5014492;28;20601;-81
2023/06/20 07:27:52;;;;;;;10.05;8.05;;;;;;;-141.97;39.56;47446.03;5013100;28;20194;-81
2023/06/20 07:30:18;;;;;;;12.13;8.52;;;;;;;-141.97;39.55;47417.22;5014785;28;20184;-79
2023/06/20 07:32:43;;;;;;;11.52;8.45;;;;;;;-141.97;40.06;47451.81;5014765;28;20219;-79
2023/06/20 07:35:08;;;;;;;10.23;8.65;;;;;;;-141.97;39.60;47340.34;5013941;28;20206;-79
2023/06/20 07:37:34;;;;;;;13.80;8.55;;;;;;;-141.97;39.97;47344.19;5014712;28;20184;-80
2023/06/20 07:40:00;;;;;;;10.40;9.20;;;;;;;-141.97;39.25;47430.66;5013311;28;20207;-80
2023/06/20 07:42:26;;;;;;;13.00;9.00;;;;;;;-141.97;38.95;47422.97;5014314;28;20173;-80
2023/06/20 07:44:51;;;;;;;10.15;8.73;;;;;;;-141.97;39.06;47586.34;5014464;28;20363;-81
2023/06/20 07:47:16;;;;;;;12.27;8.63;;;;;;;-141.97;39.57;47334.56;5012911;28;20202;-82
2023/06/20 07:49:42;;;;;;;12.55;9.38;;;;;;;-141.97;39.94;47436.44;5013328;28;20650;-80
2023/06/20 07:52:09;;;;;;;14.32;9.27;;;;;;;-141.97;39.77;47422.97;5014446;28;20249;-80
2023/06/20 07:54:34;;;;;;;10.32;8.68;;;;;;;-141.97;39.42;47357.63;5014233;28;20167;-79
2023/06/20 07:57:00;;;;;;;9.85;7.80;;;;;;;-141.97;38.61;47463.34;5013751;28;20170;-79
2023/06/20 07:59:25;;;;;;;9.73;8.02;;;;;;;-141.97;37.54;47576.75;5012412;28;20174;-78
2023/06/20 08:01:51;;;;;;;12.13;7.95;;;;;;;-141.97;36.85;47365.31;5029547;28;20536;-80
2023/06/20 08:04:16;;;;;;;8.85;7.50;;;;;;;-141.97;36.50;47280.75;5013396;28;20171;-80
2023/06/20 08:06:41;;;;;;;9.57;8.27;;;;;;;-141.97;37.44;47415.28;5012115;28;20967;-79
2023/06/20 08:09:07;;;;;;;9.23;8.30;;;;;;;-141.97;37.89;47426.81;5013994;28;20722;-79
2023/06/20 08:11:34;;;;;;;8.48;7.63;;;;;;;-141.97;37.73;47422.97;5013654;28;20192;-80
2023/06/20 08:13:59;;;;;;;8.80;7.90;;;;;;;-141.97;37.91;47434.50;5012595;28;20622;-81
2023/06/20 08:16:25;;;;;;;8.60;7.10;;;;;;;-141.97;37.34;47424.91;5013630;28;20181;-80
2023/06/20 08:18:50;;;;;;;9.02;7.82;;;;;;;-141.97;37.66;47428.75;5014016;28;20174;-79
2023/06/20 08:21:16;;;;;;;9.50;8.00;;;;;;;-141.97;37.81;47496.00;5013448;28;20271;-80
2023/06/20 08:23:41;;;;;;;9.55;7.97;;;;;;;-141.97;37.37;47424.91;5011988;28;20196;-78
2023/06/20 08:26:06;;;;;;;9.02;7.22;;;;;;;-141.97;37.86;47440.28;5011858;28;20274;-79
2023/06/20 08:28:32;;;;;;;9.48;7.68;;;;;;;-141.97;38.24;47436.44;5012137;28;20172;-80
2023/06/20 08:30:57;;;;;;;9.18;7.72;;;;;;;-141.97;37.73;47426.81;5013248;28;20210;-80
2023/06/20 08:33:22;;;;;;;9.65;7.70;;;;;;;-141.97;36.64;47422.97;5013155;28;20205;-80
2023/06/20 08:35:50;;;;;;;8.50;7.60;;;;;;;-141.97;36.70;47398.00;5012779;28;20173;-80
2023/06/20 08:38:16;;;;;;;9.85;8.02;;;;;;;-141.97;36.93;47380.69;4993768;28;20579;-79
2023/06/20 08:40:41;;;;;;;8.90;7.85;;;;;;;-141.97;36.47;47296.13;4992269;28;20213;-79
2023/06/20 08:43:07;;;;;;;9.48;7.55;;;;;;;-141.97;36.09;47396.06;4993322;28;20602;-80
2023/06/20 08:45:35;;;;;;;8.77;7.20;;;;;;;-141.97;34.98;47426.81;4993629;28;20181;-79
2023/06/20 08:48:00;;;;;;;7.90;6.57;;;;;;;-141.97;34.76;47428.75;5010424;28;20201;-79
2023/06/20 08:50:26;;;;;;;9.63;7.30;;;;;;;-141.97;35.11;47392.22;5012625;28;20184;-79
2023/06/20 08:52:55;;;;;;;9.25;7.32;;;;;;;-141.97;34.71;47321.13;5012852;28;20184;-80
2023/06/20 08:55:22;;;;;;;9.02;7.07;;;;;;;-141.97;34.69;47434.50;5012750;28;20528;-80
2023/06/20 08:57:47;;;;;;;10.38;7.25;;;;;;;-141.97;35.00;47359.56;5012115;28;20667;-79
2023/06/20 09:00:20;;;;;;;8.13;6.72;;;;;;;-141.97;34.69;47419.13;5012862;28;20170;-80
2023/06/20 09:02:50;;;;;;;12.45;7.20;;;;;;;-141.97;34.59;47369.16;5012717;28;20169;-79
2023/06/20 09:05:16;;;;;;;9.20;6.60;;;;;;;-141.97;34.13;47349.94;5012552;28;20178;-79
2023/06/20 09:07:43;;;;;;;7.07;6.38;;;;;;;-141.97;33.42;47411.44;5012166;28;20198;-79
2023/06/20 09:10:19;;;;;;;7.15;6.35;;;;;;;-141.97;33.00;47357.63;5012268;28;20229;-79
2023/06/20 09:12:47;;;;;;;6.90;6.20;;;;;;;-141.97;32.86;47355.72;5012040;28;20208;-79
2023/06/20 09:15:15;;;;;;;7.10;6.40;;;;;;;-141.97;32.47;47361.47;5012424;28;20226;-79
2023/06/20 09:17:42;;;;;;;8.75;6.43;;;;;;;-141.97;32.51;47538.28;4987053;28;20270;-80
2023/06/20 09:20:09;;;;;;;7.70;6.32;;;;;;;-141.97;32.05;47374.94;4992682;28;20576;-80
2023/06/20 09:22:38;;;;;;;7.00;5.95;;;;;;;-141.97;31.74;47549.84;4992910;28;20536;-78
2023/06/20 09:25:03;;;;;;;6.70;5.55;;;;;;;-141.97;30.85;47269.22;4999075;28;20552;-80
2023/06/20 09:27:37;;;;;;;6.53;5.82;;;;;;;-141.97;31.18;47359.56;5009294;28;20951;-78
2023/06/20 09:30:03;;;;;;;6.97;6.28;;;;;;;-141.97;31.48;47348.03;5010888;28;20356;-80
2023/06/20 09:32:36;;;;;;;8.15;6.50;;;;;;;-141.97;31.53;47355.72;5005537;28;20186;-79
2023/06/20 09:35:04;;;;;;;8.93;6.60;;;;;;;-141.97;31.58;47363.41;4996340;28;20185;-81
2023/06/20 09:37:36;;;;;;;6.88;6.20;;;;;;;-141.97;31.04;47286.53;5009216;28;20205;-81
2023/06/20 09:40:20;;;;;;;6.97;6.20;;;;;;;-141.97;31.66;47340.34;5011829;28;20182;-80
2023/06/20 09:42:47;;;;;;;8.13;6.60;;;;;;;-141.97;32.66;47346.09;5011547;28;20266;-80
2023/06/20 09:45:15;;;;;;;8.02;6.80;;;;;;;-141.97;33.42;47369.16;5011803;28;20670;-81
2023/06/20 09:47:43;;;;;;;7.95;7.03;;;;;;;-141.97;33.08;47361.47;5011595;28;20194;-80
2023/06/20 09:50:15;;;;;;;7.60;6.80;;;;;;;-141.97;33.94;47369.16;5009691;28;20217;-80
2023/06/20 09:52:45;;;;;;;9.85;6.80;;;;;;;-141.97;33.92;47373.00;5011119;28;20604;-79
2023/06/20 09:55:12;;;;;;;8.45;6.95;;;;;;;-141.97;33.86;47386.47;5010706;28;20182;-79
2023/06/20 09:57:43;;;;;;;8.77;7.03;;;;;;;-141.97;34.01;47376.84;5009018;28;20186;-81
2023/06/20 10:00:14;;;;;;;8.93;6.78;;;;;;;-141.97;33.23;47269.22;4991259;28;20221;-80
2023/06/20 10:02:45;;;;;;;7.22;6.53;;;;;;;-141.97;33.46;47361.47;5000691;28;20219;-80
2023/06/20 10:05:21;;;;;;;7.82;6.95;;;;;;;-141.97;33.24;47357.63;5012126;28;20228;-80
2023/06/20 10:07:48;;;;;;;7.10;6.40;;;;;;;-141.97;32.88;47334.56;5011190;28;20200;-81
2023/06/20 10:10:14;;;;;;;7.10;6.40;;;;;;;-141.97;32.75;47669.00;5009719;28;20186;-80
2023/06/20 10:12:43;;;;;;;7.25;6.50;;;;;;;-141.97;32.90;47296.13;4992295;28;20250;-81
2023/06/20 10:15:09;;;;;;;8.38;6.78;;;;;;;-141.97;32.53;47507.53;4992450;28;20178;-82
2023/06/20 10:17:39;;;;;;;7.75;6.65;;;;;;;-141.97;32.04;47317.28;5003128;28;20198;-79
2023/06/20 10:20:07;;;;;;;8.13;6.40;;;;;;;-141.97;31.35;47336.50;5011499;28;20170;-79
2023/06/20 10:22:38;;;;;;;7.03;6.30;;;;;;;-141.97;31.77;47349.94;5011803;28;20162;-80
2023/06/20 10:25:11;;;;;;;7.13;6.22;;;;;;;-141.97;32.59;47369.16;5011991;28;20655;-81
2023/06/20 10:27:37;;;;;;;8.65;6.18;;;;;;;-141.97;32.10;47415.28;5008310;28;20198;-80
2023/06/20 10:30:05;;;;;;;7.75;5.93;;;;;;;-141.97;31.41;47186.59;4992109;28;20635;-78
2023/06/20 10:32:31;;;;;;;8.25;5.95;;;;;;;-141.97;31.09;47296.13;4982366;28;20731;-80
2023/06/20 10:35:04;;;;;;;7.93;5.97;;;;;;;-141.97;31.50;47380.69;5006871;28;20179;-80
2023/06/20 10:37:29;;;;;;;8.30;6.40;;;;;;;-141.97;31.65;47392.22;5001439;28;20210;-80
2023/06/20 10:39:56;;;;;;;6.85;5.93;;;;;;;-141.97;31.41;47315.34;5012106;28;20194;-80
2023/06/20 10:42:41;;;;;;;6.70;6.00;;;;;;;-141.97;31.28;47376.84;5014473;28;20300;-79
2023/06/20 10:45:25;;;;;;;10.38;6.10;;;;;;;-141.97;31.04;47359.56;5015196;28;20655;-79
2023/06/20 10:47:52;;;;;;;7.38;5.85;;;;;;;-141.97;30.69;47365.31;5014793;28;20186;-79
2023/06/20 10:50:17;;;;;;;11.30;6.22;;;;;;;-141.97;30.77;47292.28;5013794;28;20217;-80
2023/06/20 10:52:43;;;;;;;7.18;6.20;;;;;;;-141.97;30.77;47284.59;5015013;28;20654;-79
2023/06/20 10:55:09;;;;;;;6.88;6.20;;;;;;;-141.97;30.74;47361.47;5012742;28;20182;-79
2023/06/20 10:57:35;;;;;;;7.82;6.82;;;;;;;-141.97;30.58;47305.75;5014320;28;20179;-79
2023/06/20 11:00:14;;;;;;;7.13;6.38;;;;;;;-141.97;30.86;47365.31;5015259;28;20607;-80
2023/06/20 11:02:39;;;;;;;8.90;6.15;;;;;;;-141.97;30.77;47363.41;5014282;28;20635;-79
2023/06/20 11:05:06;;;;;;;7.05;5.80;;;;;;;-141.97;31.12;47374.94;5014616;28;20181;-79
2023/06/20 11:07:32;;;;;;;6.85;6.15;;;;;;;-141.97;30.92;47580.59;5014551;28;20194;-80
2023/06/20 11:09:57;;;;;;;6.78;6.07;;;;;;;-141.97;31.20;47217.34;5014224;28;20329;-78